Time;durP1;ratioP1;P1;durP2;ratioP2;P2;SDS_P1;SDS_P2;PMS_P1;PMS_P2;Temp;Humidity;BMP_temperature;BMP_pressure;BME280_temperature;BME280_humidity;BME280_pressure;Samples;Min_cycle;Max_cycle;Signal;HPM_P1;HPM_P2
2022/10/03 00:01:10;;;;;;;0.20;0.20;;;;;;;;;;5073813;28;20471;-74
2022/10/03 00:03:41;;;;;;;0.10;0.10;;;;;;;;;;5039536;28;20421;-70
2022/10/03 00:06:14;;;;;;;0.13;0.13;;;;;;;;;;5056166;28;20033;-71
2022/10/03 00:08:54;;;;;;;0.15;0.15;;;;;;;;;;5056026;28;20028;-69
2022/10/03 00:11:20;;;;;;;0.20;0.20;;;;;;;;;;5054669;28;20124;-73
2022/10/03 00:14:06;;;;;;;0.10;0.10;;;;;;;;;;5072090;28;20422;-71
2022/10/03 00:16:46;;;;;;;0.20;0.20;;;;;;;;;;5057202;28;20082;-71
2022/10/03 00:19:18;;;;;;;0.20;0.20;;;;;;;;;;5071589;28;20036;-72
2022/10/03 00:21:49;;;;;;;0.20;0.20;;;;;;;;;;5071770;28;20036;-71
2022/10/03 00:24:31;;;;;;;0.28;0.28;;;;;;;;;;5071798;28;20017;-72
2022/10/03 00:27:07;;;;;;;0.20;0.20;;;;;;;;;;5072020;28;20028;-70
2022/10/03 00:29:45;;;;;;;0.20;0.20;;;;;;;;;;5038503;28;20086;-71
2022/10/03 00:32:13;;;;;;;0.30;0.30;;;;;;;;;;5073832;28;20127;-69
2022/10/03 00:34:48;;;;;;;0.40;0.40;;;;;;;;;;5073682;28;20029;-70
2022/10/03 00:37:32;;;;;;;0.20;0.20;;;;;;;;;;5073430;28;20017;-69
2022/10/03 00:40:16;;;;;;;0.20;0.20;;;;;;;;;;5073312;28;20037;-69
2022/10/03 00:43:00;;;;;;;0.20;0.20;;;;;;;;;;5073930;28;20029;-70
2022/10/03 00:45:44;;;;;;;0.10;0.10;;;;;;;;;;5073553;28;20564;-69
2022/10/03 00:48:29;;;;;;;0.20;0.20;;;;;;;;;;5073434;28;20020;-69
2022/10/03 00:50:57;;;;;;;0.20;0.20;;;;;;;;;;5073423;28;20043;-69
2022/10/03 00:53:32;;;;;;;0.20;0.20;;;;;;;;;;5073452;28;20040;-68
2022/10/03 00:56:01;;;;;;;0.20;0.20;;;;;;;;;;5073454;28;20033;-69
2022/10/03 00:58:38;;;;;;;0.25;0.25;;;;;;;;;;5055490;28;20123;-69
2022/10/03 01:01:20;;;;;;;0.20;0.20;;;;;;;;;;5073355;28;20074;-69
2022/10/03 01:03:53;;;;;;;0.20;0.20;;;;;;;;;;5055294;28;20055;-69
2022/10/03 01:06:42;;;;;;;0.20;0.20;;;;;;;;;;5038805;28;20101;-69
2022/10/03 01:09:07;;;;;;;0.30;0.30;;;;;;;;;;5055171;28;20579;-69
2022/10/03 01:11:40;;;;;;;0.20;0.20;;;;;;;;;;5072953;28;20123;-71
2022/10/03 01:14:11;;;;;;;0.20;0.20;;;;;;;;;;5073599;28;20021;-71
2022/10/03 01:16:40;;;;;;;0.20;0.20;;;;;;;;;;5072982;28;20048;-71
2022/10/03 01:19:08;;;;;;;0.57;0.57;;;;;;;;;;5072455;28;20055;-70
2022/10/03 01:21:37;;;;;;;0.45;0.45;;;;;;;;;;5073225;28;20036;-70
2022/10/03 01:24:05;;;;;;;0.20;0.20;;;;;;;;;;5073302;28;20483;-70
2022/10/03 01:26:36;;;;;;;0.20;0.20;;;;;;;;;;5073227;28;20025;-70
2022/10/03 01:32:12;;;;;;;0.17;0.17;;;;;;;;;;5072917;28;20032;-71
2022/10/03 01:34:41;;;;;;;0.10;0.10;;;;;;;;;;5064684;28;20033;-71
2022/10/03 01:37:14;;;;;;;0.30;0.30;;;;;;;;;;5072756;28;20117;-71
2022/10/03 01:39:49;;;;;;;0.20;0.20;;;;;;;;;;5055003;28;20052;-71
2022/10/03 01:42:33;;;;;;;0.20;0.20;;;;;;;;;;5041114;28;20020;-71
2022/10/03 01:45:13;;;;;;;0.17;0.17;;;;;;;;;;5076901;28;20472;-71
2022/10/03 01:47:50;;;;;;;0.25;0.25;;;;;;;;;;5077040;28;20070;-70
2022/10/03 01:50:22;;;;;;;0.20;0.20;;;;;;;;;;5076803;28;20037;-70
2022/10/03 01:52:48;;;;;;;0.20;0.20;;;;;;;;;;5076780;28;20028;-70
2022/10/03 01:55:24;;;;;;;0.20;0.20;;;;;;;;;;5076314;28;20100;-70
2022/10/03 01:57:59;;;;;;;0.30;0.30;;;;;;;;;;5076478;28;20032;-70
2022/10/03 02:00:28;;;;;;;0.13;0.13;;;;;;;;;;5041841;28;20051;-69
2022/10/03 02:03:06;;;;;;;0.10;0.10;;;;;;;;;;5059158;28;20029;-69
2022/10/03 02:05:37;;;;;;;0.25;0.25;;;;;;;;;;5076255;28;20023;-70
2022/10/03 02:08:06;;;;;;;0.13;0.13;;;;;;;;;;5058429;28;20025;-69
2022/10/03 02:10:49;;;;;;;0.20;0.20;;;;;;;;;;5076006;28;20411;-69
2022/10/03 02:13:27;;;;;;;0.20;0.20;;;;;;;;;;5076486;28;20093;-69
2022/10/03 02:16:08;;;;;;;0.20;0.20;;;;;;;;;;5076252;28;20464;-71
2022/10/03 02:18:49;;;;;;;0.30;0.30;;;;;;;;;;5076432;28;20040;-70
2022/10/03 02:21:19;;;;;;;0.20;0.20;;;;;;;;;;5076478;28;20032;-70
2022/10/03 02:23:45;;;;;;;0.22;0.22;;;;;;;;;;5058415;28;20563;-70
2022/10/03 02:26:20;;;;;;;0.10;0.10;;;;;;;;;;5058227;28;20108;-70
2022/10/03 02:28:46;;;;;;;0.15;0.15;;;;;;;;;;5076065;28;20487;-69
2022/10/03 02:31:41;;;;;;;0.20;0.20;;;;;;;;;;5058401;28;20029;-69
2022/10/03 02:34:26;;;;;;;0.20;0.20;;;;;;;;;;5075625;28;20052;-69
2022/10/03 02:36:59;;;;;;;0.15;0.15;;;;;;;;;;5075909;28;20077;-70
2022/10/03 02:39:43;;;;;;;0.20;0.20;;;;;;;;;;5076155;28;20041;-69
2022/10/03 02:42:13;;;;;;;0.20;0.20;;;;;;;;;;5057838;28;20028;-69
2022/10/03 02:44:39;;;;;;;;;;;;;;;;;;5076404;28;20032;-70
2022/10/03 02:47:31;;;;;;;0.20;0.20;;;;;;;;;;5075887;28;19912;-70
2022/10/03 02:49:56;;;;;;;0.20;0.20;;;;;;;;;;5051850;28;20051;-70
2022/10/03 02:52:40;;;;;;;0.10;0.10;;;;;;;;;;5075864;28;20376;-69
2022/10/03 02:55:21;;;;;;;0.20;0.20;;;;;;;;;;5075802;28;20729;-69
2022/10/03 02:57:50;;;;;;;0.20;0.20;;;;;;;;;;5075675;28;20039;-71
2022/10/03 03:00:18;;;;;;;1.77;1.65;;;;;;;;;;5075191;28;20052;-69
2022/10/03 03:02:53;;;;;;;0.20;0.20;;;;;;;;;;5065121;28;20032;-72
2022/10/03 03:05:37;;;;;;;0.20;0.20;;;;;;;;;;5051734;28;20070;-72
2022/10/03 03:08:23;;;;;;;0.28;0.28;;;;;;;;;;5051428;28;20017;-71
2022/10/03 03:11:10;;;;;;;0.10;0.10;;;;;;;;;;5033645;28;20029;-70
2022/10/03 03:13:54;;;;;;;0.10;0.10;;;;;;;;;;5033445;28;20032;-70
2022/10/03 03:16:31;;;;;;;0.20;0.20;;;;;;;;;;5051204;28;20480;-70
2022/10/03 03:19:12;;;;;;;0.20;0.20;;;;;;;;;;5017077;28;20049;-71
2022/10/03 03:21:47;;;;;;;0.13;0.13;;;;;;;;;;5051549;28;20029;-70
2022/10/03 03:24:12;;;;;;;0.10;0.10;;;;;;;;;;5033990;28;20061;-70
2022/10/03 03:26:38;;;;;;;0.20;0.20;;;;;;;;;;5051034;28;20105;-71
2022/10/03 03:29:22;;;;;;;0.10;0.10;;;;;;;;;;5033052;28;20488;-72
2022/10/03 03:31:47;;;;;;;0.20;0.20;;;;;;;;;;5033674;28;20035;-70
2022/10/03 03:34:30;;;;;;;0.13;0.13;;;;;;;;;;5051407;28;20418;-71
2022/10/03 03:36:56;;;;;;;0.10;0.10;;;;;;;;;;5050526;28;20135;-71
2022/10/03 03:39:41;;;;;;;0.15;0.15;;;;;;;;;;5050959;28;20125;-70
2022/10/03 03:42:07;;;;;;;0.20;0.20;;;;;;;;;;5033796;28;20386;-70
2022/10/03 03:44:53;;;;;;;0.20;0.20;;;;;;;;;;5051042;28;20033;-70
2022/10/03 03:47:37;;;;;;;0.10;0.10;;;;;;;;;;5050974;28;20017;-70
2022/10/03 03:50:12;;;;;;;0.10;0.10;;;;;;;;;;5050570;28;20033;-71
2022/10/03 03:52:41;;;;;;;5.28;2.65;;;;;;;;;;5032805;28;20498;-71
2022/10/03 03:55:25;;;;;;;13.95;6.65;;;;;;;;;;5050654;28;20086;-70
2022/10/03 03:57:50;;;;;;;0.28;0.28;;;;;;;;;;5050560;28;20029;-71
2022/10/03 04:00:19;;;;;;;0.20;0.20;;;;;;;;;;5015759;28;20040;-80
2022/10/03 04:02:51;;;;;;;0.20;0.20;;;;;;;;;;5050196;28;20420;-80
2022/10/03 04:05:32;;;;;;;0.20;0.20;;;;;;;;;;5049781;28;20057;-71
2022/10/03 04:08:16;;;;;;;0.20;0.20;;;;;;;;;;4999774;28;20147;-71
2022/10/03 04:10:45;;;;;;;0.10;0.10;;;;;;;;;;5032265;28;20021;-77
2022/10/03 04:13:35;;;;;;;0.17;0.17;;;;;;;;;;5050227;28;20426;-70
2022/10/03 04:16:09;;;;;;;0.20;0.20;;;;;;;;;;5032245;28;20060;-71
2022/10/03 04:18:59;;;;;;;0.20;0.20;;;;;;;;;;5032959;28;20119;-71
2022/10/03 04:21:28;;;;;;;0.20;0.20;;;;;;;;;;5031948;28;20033;-70
2022/10/03 04:23:56;;;;;;;0.20;0.20;;;;;;;;;;5050163;28;20082;-71
2022/10/03 04:26:41;;;;;;;0.10;0.10;;;;;;;;;;5015360;28;20377;-68
2022/10/03 04:29:20;;;;;;;0.10;0.10;;;;;;;;;;5050156;28;20108;-69
2022/10/03 04:31:53;;;;;;;0.20;0.20;;;;;;;;;;5049882;28;20029;-68
2022/10/03 04:34:19;;;;;;;0.25;0.25;;;;;;;;;;5050329;28;20420;-70
2022/10/03 04:37:02;;;;;;;0.20;0.20;;;;;;;;;;5050461;28;20112;-70
2022/10/03 04:39:28;;;;;;;0.10;0.10;;;;;;;;;;5049756;28;20509;-72
2022/10/03 04:42:00;;;;;;;0.20;0.20;;;;;;;;;;5049826;28;20060;-71
2022/10/03 04:44:43;;;;;;;0.20;0.20;;;;;;;;;;5032045;28;20068;-71
2022/10/03 04:47:15;;;;;;;0.10;0.10;;;;;;;;;;5032101;28;20029;-71
2022/10/03 04:49:51;;;;;;;0.20;0.20;;;;;;;;;;5049682;28;20044;-71
2022/10/03 04:52:25;;;;;;;0.10;0.10;;;;;;;;;;5015171;28;20029;-71
2022/10/03 04:54:51;;;;;;;0.20;0.20;;;;;;;;;;5031466;28;20384;-72
2022/10/03 04:57:29;;;;;;;0.20;0.20;;;;;;;;;;5015276;28;20025;-70
2022/10/03 04:59:58;;;;;;;0.10;0.10;;;;;;;;;;5049551;28;20041;-72
2022/10/03 05:02:29;;;;;;;0.32;0.32;;;;;;;;;;5049429;28;20083;-73
2022/10/03 05:04:59;;;;;;;0.20;0.20;;;;;;;;;;5048878;28;20041;-71
2022/10/03 05:07:41;;;;;;;0.20;0.20;;;;;;;;;;5049932;28;20598;-71
2022/10/03 05:10:15;;;;;;;0.10;0.10;;;;;;;;;;5049073;28;20549;-71
2022/10/03 05:12:49;;;;;;;0.20;0.20;;;;;;;;;;5048627;28;20036;-76
2022/10/03 05:15:39;;;;;;;0.20;0.20;;;;;;;;;;5014507;28;20503;-70
2022/10/03 05:18:17;;;;;;;0.13;0.13;;;;;;;;;;5031159;28;20381;-70
2022/10/03 05:20:46;;;;;;;0.10;0.10;;;;;;;;;;5049252;28;20048;-70
2022/10/03 05:23:32;;;;;;;0.13;0.13;;;;;;;;;;5048932;28;20040;-72
2022/10/03 05:26:07;;;;;;;0.10;0.10;;;;;;;;;;5049285;28;20689;-72
2022/10/03 05:28:33;;;;;;;0.10;0.10;;;;;;;;;;5047943;28;20036;-72
2022/10/03 05:31:17;;;;;;;0.20;0.20;;;;;;;;;;5046907;28;20021;-72
2022/10/03 05:34:03;;;;;;;0.20;0.20;;;;;;;;;;5047259;28;20025;-71
2022/10/03 05:36:39;;;;;;;0.20;0.20;;;;;;;;;;5029544;28;20037;-71
2022/10/03 05:39:22;;;;;;;0.20;0.20;;;;;;;;;;5029221;28;20048;-73
2022/10/03 05:41:59;;;;;;;2.28;2.17;;;;;;;;;;5029522;28;20098;-72
2022/10/03 05:44:39;;;;;;;0.10;0.10;;;;;;;;;;5030512;28;20024;-73
2022/10/03 05:50:10;;;;;;;1.27;1.27;;;;;;;;;;5035151;28;20072;-72
2022/10/03 05:52:54;;;;;;;1.65;1.58;;;;;;;;;;5049155;28;20037;-71
2022/10/03 05:55:27;;;;;;;0.10;0.10;;;;;;;;;;5049182;28;20057;-70
2022/10/03 05:58:25;;;;;;;0.20;0.20;;;;;;;;;;5031285;28;20124;-71
2022/10/03 06:00:53;;;;;;;0.20;0.20;;;;;;;;;;5004476;28;20103;-70
2022/10/03 06:03:38;;;;;;;0.20;0.20;;;;;;;;;;5048897;28;20029;-71
2022/10/03 06:06:06;;;;;;;0.13;0.13;;;;;;;;;;5048682;28;20048;-75
2022/10/03 06:09:01;;;;;;;0.20;0.20;;;;;;;;;;5049380;28;20031;-70
2022/10/03 06:11:45;;;;;;;3.40;3.22;;;;;;;;;;5049219;28;20104;-71
2022/10/03 06:14:10;;;;;;;0.20;0.20;;;;;;;;;;5049214;28;20032;-70
2022/10/03 06:16:36;;;;;;;1.20;1.20;;;;;;;;;;5048365;28;20049;-72
2022/10/03 06:19:07;;;;;;;8.45;3.22;;;;;;;;;;5048505;28;20065;-69
2022/10/03 06:21:45;;;;;;;0.10;0.10;;;;;;;;;;5049083;28;20799;-71
2022/10/03 06:24:16;;;;;;;0.20;0.20;;;;;;;;;;5030954;28;20100;-78
2022/10/03 06:26:48;;;;;;;0.20;0.20;;;;;;;;;;5048556;28;20021;-75
2022/10/03 06:29:13;;;;;;;0.10;0.10;;;;;;;;;;5033664;28;20047;-72
2022/10/03 06:31:39;;;;;;;0.30;0.30;;;;;;;;;;5052294;28;20025;-72
2022/10/03 06:34:23;;;;;;;0.10;0.10;;;;;;;;;;5034534;28;20033;-76
2022/10/03 06:37:15;;;;;;;0.20;0.20;;;;;;;;;;5052081;28;20029;-75
2022/10/03 06:39:59;;;;;;;0.10;0.10;;;;;;;;;;5011145;28;20110;-72
2022/10/03 06:42:43;;;;;;;0.20;0.20;;;;;;;;;;5052343;28;20060;-71
2022/10/03 06:45:11;;;;;;;0.20;0.20;;;;;;;;;;5052302;28;20036;-70
2022/10/03 06:47:50;;;;;;;0.20;0.20;;;;;;;;;;5051958;28;20036;-71
2022/10/03 06:50:34;;;;;;;0.20;0.20;;;;;;;;;;5052425;28;20067;-71
2022/10/03 06:53:00;;;;;;;2.92;2.72;;;;;;;;;;5051731;28;20366;-71
2022/10/03 06:55:39;;;;;;;0.20;0.20;;;;;;;;;;5051731;28;20048;-72
2022/10/03 06:58:20;;;;;;;0.20;0.20;;;;;;;;;;5052037;28;20036;-72
2022/10/03 07:00:45;;;;;;;0.20;0.20;;;;;;;;;;5051644;28;20384;-72
2022/10/03 07:03:26;;;;;;;0.20;0.20;;;;;;;;;;5052075;28;20032;-77
2022/10/03 07:05:51;;;;;;;3.33;1.33;;;;;;;;;;5051571;28;20025;-71
2022/10/03 07:08:37;;;;;;;0.20;0.20;;;;;;;;;;5051904;28;20017;-70
2022/10/03 07:11:14;;;;;;;0.10;0.10;;;;;;;;;;5034631;28;20049;-72
2022/10/03 07:13:45;;;;;;;0.20;0.20;;;;;;;;;;5051531;28;20381;-72
2022/10/03 07:16:17;;;;;;;0.20;0.20;;;;;;;;;;5051549;28;20380;-78
2022/10/03 07:19:00;;;;;;;0.20;0.20;;;;;;;;;;5033312;28;20040;-76
2022/10/03 07:21:38;;;;;;;0.20;0.20;;;;;;;;;;5051165;28;20033;-71
2022/10/03 07:24:04;;;;;;;0.20;0.20;;;;;;;;;;5051563;28;20035;-71
2022/10/03 07:26:29;;;;;;;0.13;0.13;;;;;;;;;;5051202;28;20029;-70
2022/10/03 07:28:58;;;;;;;0.35;0.35;;;;;;;;;;5051134;28;20063;-71
2022/10/03 07:31:35;;;;;;;0.20;0.20;;;;;;;;;;5051141;28;20075;-70
2022/10/03 07:34:16;;;;;;;0.20;0.20;;;;;;;;;;5033710;28;20259;-74
2022/10/03 07:40:10;;;;;;;0.75;0.75;;;;;;;;;;5051137;28;20036;-70
2022/10/03 07:42:47;;;;;;;0.47;0.47;;;;;;;;;;5030216;28;20037;-72
2022/10/03 07:45:18;;;;;;;0.20;0.20;;;;;;;;;;5050915;28;20021;-72
2022/10/03 07:48:01;;;;;;;0.20;0.20;;;;;;;;;;5050948;28;20387;-72
2022/10/03 07:50:45;;;;;;;0.20;0.20;;;;;;;;;;5051053;28;20032;-73
2022/10/03 07:53:20;;;;;;;0.20;0.20;;;;;;;;;;5032861;28;20431;-70
2022/10/03 07:55:45;;;;;;;0.20;0.20;;;;;;;;;;5033079;28;20033;-71
2022/10/03 07:58:17;;;;;;;0.20;0.20;;;;;;;;;;5050817;28;20491;-70
2022/10/03 08:00:46;;;;;;;0.20;0.20;;;;;;;;;;5050715;28;20036;-74
2022/10/03 08:03:19;;;;;;;0.13;0.13;;;;;;;;;;5050520;28;20056;-69
2022/10/03 08:05:45;;;;;;;0.10;0.10;;;;;;;;;;5050855;28;20029;-69
2022/10/03 08:08:13;;;;;;;0.20;0.20;;;;;;;;;;5050581;28;20312;-70
2022/10/03 08:10:46;;;;;;;0.57;0.57;;;;;;;;;;5050395;28;20099;-71
2022/10/03 08:13:11;;;;;;;0.20;0.20;;;;;;;;;;5050342;28;20029;-71
2022/10/03 08:15:52;;;;;;;0.22;0.22;;;;;;;;;;5049876;28;20052;-76
2022/10/03 08:18:21;;;;;;;0.20;0.20;;;;;;;;;;5050019;28;20032;-69
2022/10/03 08:20:55;;;;;;;0.30;0.30;;;;;;;;;;5049917;28;20028;-69
2022/10/03 08:23:23;;;;;;;2.85;1.88;;;;;;;;;;5049901;28;20101;-70
2022/10/03 08:25:49;;;;;;;0.20;0.20;;;;;;;;;;5050130;28;20122;-73
2022/10/03 08:28:23;;;;;;;0.20;0.20;;;;;;;;;;5049924;28;20087;-70
2022/10/03 08:30:51;;;;;;;0.20;0.20;;;;;;;;;;5015636;28;20399;-70
2022/10/03 08:33:31;;;;;;;0.20;0.20;;;;;;;;;;5049611;28;20699;-71
2022/10/03 08:36:00;;;;;;;0.20;0.20;;;;;;;;;;5050017;28;20104;-71
2022/10/03 08:38:44;;;;;;;0.20;0.20;;;;;;;;;;5049822;28;20060;-71
2022/10/03 08:41:25;;;;;;;0.20;0.20;;;;;;;;;;5049865;28;20051;-70
2022/10/03 08:44:09;;;;;;;0.20;0.20;;;;;;;;;;5049529;28;20468;-70
2022/10/03 08:46:34;;;;;;;0.20;0.20;;;;;;;;;;5031896;28;20036;-73
2022/10/03 08:49:00;;;;;;;1.45;0.65;;;;;;;;;;5049458;28;20021;-70
2022/10/03 08:51:39;;;;;;;0.30;0.30;;;;;;;;;;5015014;28;20060;-70
2022/10/03 08:54:13;;;;;;;0.20;0.20;;;;;;;;;;5032055;28;20469;-71
2022/10/03 08:56:39;;;;;;;0.30;0.30;;;;;;;;;;5049583;28;20052;-71
2022/10/03 08:59:07;;;;;;;0.30;0.30;;;;;;;;;;5049229;28;20448;-71
2022/10/03 09:01:32;;;;;;;4.03;1.60;;;;;;;;;;5049411;28;20044;-72
2022/10/03 09:04:01;;;;;;;0.20;0.20;;;;;;;;;;5049566;28;20029;-70
2022/10/03 09:06:29;;;;;;;0.30;0.30;;;;;;;;;;5049742;28;20033;-70
2022/10/03 09:09:34;;;;;;;0.20;0.20;;;;;;;;;;5049109;28;20136;-70
2022/10/03 09:12:02;;;;;;;0.20;0.20;;;;;;;;;;4968561;28;20030;-70
2022/10/03 09:14:37;;;;;;;0.30;0.30;;;;;;;;;;4968613;28;20027;-70
2022/10/03 09:17:20;;;;;;;1.10;0.73;;;;;;;;;;4990908;28;20188;-72
2022/10/03 09:20:05;;;;;;;0.30;0.30;;;;;;;;;;5010159;28;20141;-72
2022/10/03 09:22:36;;;;;;;0.20;0.20;;;;;;;;;;5009538;28;20029;-71
2022/10/03 09:25:18;;;;;;;0.30;0.30;;;;;;;;;;5009610;28;20038;-72
2022/10/03 09:27:50;;;;;;;0.20;0.20;;;;;;;;;;5008811;28;20034;-71
2022/10/03 09:30:19;;;;;;;0.30;0.30;;;;;;;;;;5009910;28;20037;-70
2022/10/03 09:33:03;;;;;;;0.30;0.30;;;;;;;;;;5009242;28;20030;-71
2022/10/03 09:35:39;;;;;;;0.30;0.30;;;;;;;;;;5009280;28;20034;-71
2022/10/03 09:38:14;;;;;;;0.30;0.30;;;;;;;;;;5009019;28;20048;-71
2022/10/03 09:40:58;;;;;;;0.20;0.20;;;;;;;;;;5010709;28;20044;-71
2022/10/03 09:43:36;;;;;;;0.20;0.20;;;;;;;;;;5010039;28;20030;-71
2022/10/03 09:46:04;;;;;;;0.28;0.28;;;;;;;;;;5009699;28;20113;-71
2022/10/03 09:48:49;;;;;;;0.30;0.30;;;;;;;;;;5009757;28;20025;-71
2022/10/03 09:51:21;;;;;;;0.20;0.20;;;;;;;;;;5010058;28;20026;-70
2022/10/03 09:54:13;;;;;;;0.30;0.30;;;;;;;;;;5008220;28;20069;-71
2022/10/03 09:57:07;;;;;;;0.40;0.40;;;;;;;;;;5009661;28;20160;-71
2022/10/03 09:59:35;;;;;;;0.30;0.30;;;;;;;;;;5005003;28;20053;-72
2022/10/03 10:02:01;;;;;;;0.35;0.35;;;;;;;;;;5009643;28;20024;-71
2022/10/03 10:04:38;;;;;;;0.93;0.93;;;;;;;;;;5010925;28;20034;-71
2022/10/03 10:07:21;;;;;;;0.40;0.40;;;;;;;;;;5013133;28;20493;-70
2022/10/03 10:09:47;;;;;;;0.22;0.22;;;;;;;;;;5011865;28;20037;-72
2022/10/03 10:12:31;;;;;;;0.30;0.30;;;;;;;;;;5011782;28;20535;-70
2022/10/03 10:14:56;;;;;;;0.30;0.30;;;;;;;;;;5017014;28;20469;-69
2022/10/03 10:17:22;;;;;;;0.30;0.30;;;;;;;;;;5052446;28;20027;-70
2022/10/03 10:19:47;;;;;;;0.30;0.30;;;;;;;;;;5052925;28;20041;-69
2022/10/03 10:22:31;;;;;;;0.30;0.30;;;;;;;;;;5052379;28;20029;-71
2022/10/03 10:25:05;;;;;;;0.30;0.30;;;;;;;;;;5052361;28;20412;-69
2022/10/03 10:27:50;;;;;;;0.40;0.40;;;;;;;;;;5052332;28;20029;-70
2022/10/03 10:30:33;;;;;;;0.30;0.30;;;;;;;;;;5052246;28;20039;-71
2022/10/03 10:33:18;;;;;;;0.20;0.20;;;;;;;;;;5052149;28;20452;-71
2022/10/03 10:36:05;;;;;;;0.30;0.30;;;;;;;;;;5034117;28;20548;-71
2022/10/03 10:38:49;;;;;;;0.30;0.30;;;;;;;;;;5052335;28;20058;-70
2022/10/03 10:41:33;;;;;;;0.40;0.40;;;;;;;;;;5051756;28;20029;-70
2022/10/03 10:44:17;;;;;;;0.30;0.30;;;;;;;;;;5051949;28;20032;-70
2022/10/03 10:46:55;;;;;;;0.45;0.45;;;;;;;;;;5051698;28;20487;-72
2022/10/03 10:49:59;;;;;;;0.40;0.40;;;;;;;;;;5051993;28;20421;-70
2022/10/03 10:52:28;;;;;;;0.30;0.30;;;;;;;;;;4970841;28;20499;-70
2022/10/03 10:55:05;;;;;;;0.30;0.30;;;;;;;;;;4970709;28;20035;-71
2022/10/03 10:57:50;;;;;;;0.20;0.20;;;;;;;;;;5015976;28;20355;-71
2022/10/03 11:00:18;;;;;;;0.52;0.52;;;;;;;;;;5033904;28;20051;-70
2022/10/03 11:03:02;;;;;;;0.43;0.43;;;;;;;;;;5051383;28;20076;-71
2022/10/03 11:05:46;;;;;;;0.35;0.35;;;;;;;;;;5052028;28;20056;-70
2022/10/03 11:08:31;;;;;;;0.90;0.40;;;;;;;;;;5051884;28;20036;-70
2022/10/03 11:10:56;;;;;;;0.25;0.25;;;;;;;;;;5051354;28;20040;-71
2022/10/03 11:13:21;;;;;;;0.25;0.20;;;;;;;;;;5033285;28;20025;-70
2022/10/03 11:16:05;;;;;;;0.38;0.38;;;;;;;;;;5029362;28;20046;-70
2022/10/03 11:19:00;;;;;;;0.25;0.25;;;;;;;;;;5031443;28;20461;-70
2022/10/03 11:21:28;;;;;;;0.30;0.30;;;;;;;;;;5031019;28;20038;-71
2022/10/03 11:23:57;;;;;;;0.30;0.30;;;;;;;;;;5031647;28;20481;-71
2022/10/03 11:26:29;;;;;;;0.20;0.20;;;;;;;;;;5031618;28;20088;-71
2022/10/03 11:29:12;;;;;;;3.92;0.50;;;;;;;;;;5030808;28;20384;-71
2022/10/03 11:31:40;;;;;;;0.20;0.20;;;;;;;;;;5030391;28;20029;-71
2022/10/03 11:34:06;;;;;;;4.25;0.80;;;;;;;;;;5031256;28;20034;-73
2022/10/03 11:36:37;;;;;;;0.30;0.30;;;;;;;;;;5031210;28;20056;-69
2022/10/03 11:39:05;;;;;;;0.30;0.30;;;;;;;;;;5030986;28;20440;-74
2022/10/03 11:41:36;;;;;;;0.30;0.30;;;;;;;;;;5031067;28;20177;-73
2022/10/03 11:44:12;;;;;;;0.20;0.20;;;;;;;;;;5030962;28;20395;-71
2022/10/03 11:46:46;;;;;;;0.20;0.20;;;;;;;;;;5030722;28;20033;-71
2022/10/03 11:49:30;;;;;;;0.22;0.22;;;;;;;;;;5031082;28;20095;-70
2022/10/03 11:52:04;;;;;;;4.82;0.50;;;;;;;;;;5030749;28;20381;-71
2022/10/03 11:54:36;;;;;;;0.40;0.40;;;;;;;;;;5030978;28;20021;-70
2022/10/03 11:57:08;;;;;;;0.30;0.30;;;;;;;;;;5030312;28;20034;-74
2022/10/03 11:59:44;;;;;;;1.15;1.00;;;;;;;;;;5030743;28;20029;-70
2022/10/03 12:02:12;;;;;;;0.20;0.20;;;;;;;;;;5030602;28;20041;-74
2022/10/03 12:04:45;;;;;;;0.30;0.30;;;;;;;;;;5013141;28;20476;-72
2022/10/03 12:10:15;;;;;;;0.55;0.43;;;;;;;;;;5029203;28;20029;-72
2022/10/03 12:12:46;;;;;;;0.43;0.43;;;;;;;;;;5030368;28;20079;-69
2022/10/03 12:15:18;;;;;;;1.00;0.85;;;;;;;;;;5032395;28;20172;-70
2022/10/03 12:17:47;;;;;;;0.20;0.20;;;;;;;;;;5032277;28;20064;-70
2022/10/03 12:20:39;;;;;;;1.25;1.00;;;;;;;;;;5049647;28;20070;-70
2022/10/03 12:23:08;;;;;;;1.00;0.63;;;;;;;;;;5045864;28;20055;-73
2022/10/03 12:25:35;;;;;;;2.50;1.05;;;;;;;;;;5015281;28;20048;-71
2022/10/03 12:28:15;;;;;;;2.35;0.90;;;;;;;;;;5049955;28;20033;-69
2022/10/03 12:30:50;;;;;;;1.00;0.73;;;;;;;;;;5031778;28;20119;-70
2022/10/03 12:33:15;;;;;;;1.40;0.70;;;;;;;;;;5015962;28;20044;-72
2022/10/03 12:35:49;;;;;;;0.85;0.50;;;;;;;;;;5049936;28;20025;-70
2022/10/03 12:38:34;;;;;;;3.72;0.70;;;;;;;;;;5015731;28;20056;-70
2022/10/03 12:41:05;;;;;;;1.42;1.27;;;;;;;;;;5049473;28;20040;-69
2022/10/03 12:43:33;;;;;;;2.97;1.55;;;;;;;;;;5015768;28;20599;-72
2022/10/03 12:46:13;;;;;;;1.95;1.35;;;;;;;;;;5015697;28;20044;-72
2022/10/03 12:48:46;;;;;;;1.90;0.90;;;;;;;;;;5032146;28;20031;-70
2022/10/03 12:51:30;;;;;;;2.28;1.13;;;;;;;;;;5049681;28;20032;-70
2022/10/03 12:54:11;;;;;;;0.40;0.40;;;;;;;;;;5015229;28;20059;-71
2022/10/03 12:57:03;;;;;;;0.30;0.30;;;;;;;;;;5049630;28;20029;-70
2022/10/03 12:59:37;;;;;;;0.30;0.30;;;;;;;;;;5018470;28;20484;-71
2022/10/03 13:02:14;;;;;;;1.40;0.82;;;;;;;;;;5049329;28;20480;-72
2022/10/03 13:04:51;;;;;;;1.42;0.73;;;;;;;;;;5049654;28;20051;-71
2022/10/03 13:07:16;;;;;;;0.35;0.35;;;;;;;;;;5049243;28;20487;-71
2022/10/03 13:09:54;;;;;;;0.20;0.20;;;;;;;;;;5049444;28;20033;-72
2022/10/03 13:12:39;;;;;;;0.28;0.28;;;;;;;;;;5049091;28;20029;-72
2022/10/03 13:15:24;;;;;;;1.25;0.75;;;;;;;;;;5049333;28;20074;-75
2022/10/03 13:17:55;;;;;;;1.08;0.73;;;;;;;;;;5031840;28;20120;-71
2022/10/03 13:20:21;;;;;;;0.20;0.20;;;;;;;;;;5049295;28;20045;-72
2022/10/03 13:22:54;;;;;;;0.30;0.30;;;;;;;;;;5048938;28;20120;-72
2022/10/03 13:25:32;;;;;;;0.80;0.57;;;;;;;;;;5043458;28;20039;-72
2022/10/03 13:28:04;;;;;;;6.93;1.55;;;;;;;;;;5051210;28;20035;-72
2022/10/03 13:30:31;;;;;;;0.38;0.38;;;;;;;;;;5068963;28;20103;-71
2022/10/03 13:33:02;;;;;;;0.40;0.40;;;;;;;;;;5033980;28;20169;-71
2022/10/03 13:35:58;;;;;;;7.22;0.85;;;;;;;;;;5050618;28;20122;-71
2022/10/03 13:38:25;;;;;;;6.63;1.20;;;;;;;;;;5054344;28;20257;-71
2022/10/03 13:41:09;;;;;;;2.17;0.50;;;;;;;;;;5055027;28;20040;-70
2022/10/03 13:43:37;;;;;;;2.50;0.90;;;;;;;;;;5072914;28;20325;-71
2022/10/03 13:46:11;;;;;;;0.50;0.50;;;;;;;;;;5072733;28;20420;-71
2022/10/03 13:48:37;;;;;;;0.30;0.30;;;;;;;;;;5038609;28;20540;-71
2022/10/03 13:51:12;;;;;;;0.20;0.20;;;;;;;;;;5038169;28;20059;-71
2022/10/03 13:53:47;;;;;;;0.45;0.38;;;;;;;;;;5055033;28;20031;-71
2022/10/03 13:56:31;;;;;;;0.22;0.22;;;;;;;;;;5054663;28;20570;-71
2022/10/03 13:58:57;;;;;;;4.95;1.25;;;;;;;;;;5054688;28;20067;-71
2022/10/03 14:01:41;;;;;;;0.30;0.30;;;;;;;;;;5072953;28;20044;-71
2022/10/03 14:04:16;;;;;;;6.93;1.08;;;;;;;;;;5072528;28;20498;-71
2022/10/03 14:06:51;;;;;;;0.20;0.20;;;;;;;;;;5072756;28;20029;-74
2022/10/03 14:09:24;;;;;;;1.95;0.95;;;;;;;;;;5054818;28;20328;-71
2022/10/03 14:11:59;;;;;;;0.47;0.47;;;;;;;;;;5054899;28;20337;-69
2022/10/03 14:14:33;;;;;;;0.20;0.20;;;;;;;;;;5054809;28;20056;-69
2022/10/03 14:17:03;;;;;;;0.20;0.20;;;;;;;;;;5072720;28;20521;-72
2022/10/03 14:19:29;;;;;;;;;;;;;;;;;;5054691;28;20436;-75
2022/10/03 14:22:14;;;;;;;1.90;1.15;;;;;;;;;;5072353;28;19919;-77
2022/10/03 14:24:42;;;;;;;1.05;0.77;;;;;;;;;;5072666;28;20029;-78
2022/10/03 14:27:17;;;;;;;1.08;0.63;;;;;;;;;;5054582;28;20107;-78
2022/10/03 14:29:42;;;;;;;0.43;0.43;;;;;;;;;;5072317;28;20115;-77
2022/10/03 14:32:28;;;;;;;1.27;0.55;;;;;;;;;;5072362;28;20138;-78
2022/10/03 14:35:08;;;;;;;0.30;0.30;;;;;;;;;;5071862;28;20119;-80
2022/10/03 14:37:34;;;;;;;0.65;0.65;;;;;;;;;;5072706;28;20468;-78
2022/10/03 14:40:16;;;;;;;1.50;0.68;;;;;;;;;;5072416;28;20035;-80
2022/10/03 14:42:41;;;;;;;2.40;0.82;;;;;;;;;;5076938;28;20040;-81
2022/10/03 14:45:10;;;;;;;0.20;0.20;;;;;;;;;;5080510;28;20058;-81
2022/10/03 14:47:37;;;;;;;0.65;0.55;;;;;;;;;;5058148;28;20475;-81
2022/10/03 14:50:04;;;;;;;5.38;0.85;;;;;;;;;;5053246;28;20395;-82
2022/10/03 14:52:37;;;;;;;1.73;1.02;;;;;;;;;;5072429;28;20029;-82
2022/10/03 14:55:24;;;;;;;0.93;0.50;;;;;;;;;;5071834;28;20494;-80
2022/10/03 14:57:57;;;;;;;0.43;0.40;;;;;;;;;;5037375;28;20167;-77
2022/10/03 15:00:37;;;;;;;0.50;0.50;;;;;;;;;;5071852;28;20039;-78
2022/10/03 15:03:32;;;;;;;2.45;1.27;;;;;;;;;;5037165;28;20032;-76
2022/10/03 15:05:58;;;;;;;0.20;0.20;;;;;;;;;;5058447;28;20123;-76
2022/10/03 15:08:29;;;;;;;0.40;0.40;;;;;;;;;;5072311;28;20024;-78
2022/10/03 15:10:55;;;;;;;0.20;0.20;;;;;;;;;;5071653;28;20040;-79
2022/10/03 15:13:21;;;;;;;0.30;0.30;;;;;;;;;;5037111;28;20025;-80
2022/10/03 15:15:47;;;;;;;6.47;0.70;;;;;;;;;;5071570;28;20045;-78
2022/10/03 15:18:15;;;;;;;0.20;0.20;;;;;;;;;;5053767;28;20078;-77
2022/10/03 15:20:42;;;;;;;0.50;0.43;;;;;;;;;;5053599;28;20044;-78
2022/10/03 15:23:37;;;;;;;1.60;0.90;;;;;;;;;;5071307;28;20029;-77
2022/10/03 15:26:06;;;;;;;0.20;0.20;;;;;;;;;;5058363;28;20032;-77
2022/10/03 15:28:35;;;;;;;0.20;0.20;;;;;;;;;;5036659;28;20025;-78
2022/10/03 15:31:08;;;;;;;0.47;0.32;;;;;;;;;;5071196;28;20028;-74
2022/10/03 15:33:35;;;;;;;0.20;0.20;;;;;;;;;;5071439;28;20476;-79
2022/10/03 15:36:20;;;;;;;7.45;1.75;;;;;;;;;;5071443;28;20039;-76
2022/10/03 15:38:50;;;;;;;0.25;0.25;;;;;;;;;;5052624;28;20032;-77
2022/10/03 15:41:36;;;;;;;0.98;0.85;;;;;;;;;;5036735;28;20418;-80
2022/10/03 15:44:09;;;;;;;0.20;0.20;;;;;;;;;;5056357;28;20048;-78